Hauptseite
METAR-TAF:

METAR-TAF

Flughäfen :

Maastricht Aachen, Niederlande

Maastricht Aachen Airport

Breite: 50-55N, Länge: 005-47E, Höhe: 114 m

Beobachtung

Neuester Wetterbericht von vor 38 Minuten, um 18:25 UTC
Wind 16 kt aus Süd/Südwest
Temperatur 9°C
Luftfeuchtigkeit 87%
Luftdruck 1012 hPa
Sichtweite 10 km oder mehr
Geschlossene Wolkendecke in der Höhe von 2400 ft

METAR: EHBK 211825Z AUTO 21016KT 9999 OVC024 09/07 Q1012 NOSIG

Zeit: 20:03 (19:03 UTC)

Prognose

Neuester Wetterbericht von vor 1 Stunde und 51 Minuten, um 17:12 UTC
Gültige Prognose vom 21 um 18 UTC bis 22 um 24 UTC
Wind 17 kt aus Süd/Südwest
Sichtweite 10 km oder mehr
Aufgelockert bewölkt in der Höhe von 2500 ft
Wahrscheinlichkeit 30% :
Zeitweise
vom 21 um 21 UTC bis 22 um 08 UTC
Durchbrochene Bewölkung in der Höhe von 1000 ft

TAF: EHBK 211712Z 2118/2224 20017KT 9999 SCT025 PROB30 TEMPO 2121/2208 BKN010

Wetterbeobachtungen und Prognosen von mehr als 4000 Flughäfen (METAR und TAF Bericht).

Die verfügbaren Stationen werden durch gelbe und rote Markierungen auf der Karte dargestellt.

Führen Sie die Maus auf sie, um den Namen der Station zu sehen.

Darauf klicken, um die Beobachtung von Wetterbeobachtungen und Prognosen zu sehen.

Um die Karte zu ändern : klicken Sie auf den grünen Tasten mit einem schwarzen Kreuz Zum Vergrößern, auf den grünen Button mit einem Gedankenstrich zu verkleinern, oder auf die grünen Pfeile für benachbarte Karten.


METAR-TAF: